Skip Navigation Links
NOAA logo - Click to go to the NOAA homepage
NOAA's National Weather Service
Alaska Aviation Weather Unit
  NWS logo - Click to go to the NWS homepage
Left Navbar Graphic     18 AKDT = 02 GMT

   
NOAA is celebrating 200 years of science, service, and stewardship. Visit the NOAA 200th celebration Web site to learn more.
USA.gov is the U.S. Government's official Web portal to all Federal, state and local government Web resources and services.
Facebook
NWS on Facebook

Important Change Regarding the AAWU Web Presence

 

Over the last several months, the AAWU has been working to navigate its webpages to a nationally supported server. Security, as well as other needs, have necessitated the change.  In the process, we have made an effort to enhance the functionality of our website, as well as some of our products. As of June 20, 2017, aawu.arh.noaa.gov will be discontinued. The new AAWU web address is weather.gov/aawu. It is now live and will run in-parallel with the old site until it is discontinued. Please send any feedback or questions regarding the new webpages to nws.ar.aawu.webauthors@noaa.gov.  Thank you for your patience during this time of transition.
AAWU Home :: Display TAF Add Bookmark
METAR PAKP 242016Z AUTO 18009G16KT 10SM OVC060 08/M03 A2970 RMK AO1=

METAR PAKP 242036Z AUTO 20006G17KT 170V350 10SM BKN060 09/M04 A2970 RMK
     AO1=

METAR PAKP 242056Z AUTO 18009KT 10SM OVC060 08/M04 A2969 RMK AO1
     57020=

METAR PAKP 242116Z AUTO 22008KT 190V250 10SM OVC060 08/M04 A2968 RMK
 AO1=

METAR PAKP 242136Z AUTO 20008KT 10SM OVC060 08/M04 A2968 RMK AO1=

METAR PAKP 242156Z AUTO 17010G17KT 10SM OVC060 09/M04 A2967 RMK AO1=

METAR PAKP 242216Z AUTO 20015G19KT 10SM BKN060 OVC075 09/M04 A2966 RMK
     AO1=

METAR PAKP 242236Z AUTO 18014G19KT 10SM OVC060 09/M04 A2966 RMK AO1=

METAR PAKP 242256Z AUTO 17009G15KT 150V220 10SM BKN060 OVC075 09/M04
     A2965 RMK AO1=

METAR PAKP 242316Z AUTO 21007KT 150V220 10SM BKN060 BKN075 09/M04 A2964
     RMK AO1=

METAR PAKP 242336Z AUTO 18011G16KT 140V230 10SM BKN060 09/M04 A2963 RMK
     AO1=

METAR PAKP 242356Z AUTO 21008G14KT 10SM BKN060 09/M04 A2962 RMK AO1
     10100 20070 401000000 57024=

METAR PAKP 250016Z AUTO 19006KT 10SM OVC060 09/M04 A2961 RMK AO1=

METAR PAKP 250036Z AUTO 22010G16KT 10SM BKN060 09/M03 A2962 RMK AO1=

METAR PAKP 250056Z AUTO 17010G15KT 10SM BKN060 OVC070 09/M03 A2961
 RMK AO1=

METAR PAKP 250116Z AUTO 20012KT 10SM OVC060 09/M03 A2961 RMK AO1=

METAR PAKP 250136Z AUTO 19007G17KT 170V230 10SM OVC050 09/M01 A2961
 RMK AO1=

METAR PAKP 250156Z AUTO 18007KT 10SM SCT048 OVC050 08/M02 A2961 RMK
     AO1=

METAR PAKP 250216Z AUTO 19010G15KT 10SM BKN048 OVC050 07/M01 A2961 RMK
     AO1=

METAR PAKP 250236Z AUTO 21008KT 10SM FEW035 BKN043 OVC050 07/00 A2960
     RMK AO1=


NOAA's National Weather Service
Alaska Aviation Weather Unit
6930 Sand Lake Road
Anchorage, AK 99502-1845
Disclaimer
Credits
Glossary
Privacy Policy
About Us
Career Opportunities
Contact AAWU Internet Services Site last modified: April, 17th 2012